createdAt,value
2023-04-02T00:01:01.625Z,9.06
2023-04-02T00:03:42.544Z,9.04
2023-04-02T00:06:34.215Z,8.83
2023-04-02T00:09:21.314Z,8.82
2023-04-02T00:11:54.952Z,8.75
2023-04-02T00:14:36.616Z,8.77
2023-04-02T00:17:06.480Z,8.79
2023-04-02T00:19:49.941Z,8.86
2023-04-02T00:22:20.024Z,8.83
2023-04-02T00:24:49.883Z,8.77
2023-04-02T00:27:19.907Z,8.60
2023-04-02T00:29:58.477Z,8.66
2023-04-02T00:32:33.189Z,8.73
2023-04-02T00:35:00.983Z,8.70
2023-04-02T00:37:38.894Z,8.69
2023-04-02T00:40:16.883Z,8.72
2023-04-02T00:42:44.918Z,8.74
2023-04-02T00:45:23.673Z,8.72
2023-04-02T00:47:51.103Z,8.71
2023-04-02T00:50:20.667Z,8.73
2023-04-02T00:52:51.013Z,8.71
2023-04-02T00:55:25.002Z,8.66
2023-04-02T00:57:52.469Z,8.66
2023-04-02T01:00:32.281Z,8.68
2023-04-02T01:03:20.309Z,8.64
2023-04-02T01:05:50.660Z,8.61
2023-04-02T01:08:31.841Z,8.57
2023-04-02T01:11:29.171Z,8.55
2023-04-02T01:14:07.932Z,8.56
2023-04-02T01:16:42.354Z,8.54
2023-04-02T01:19:45.712Z,8.59
2023-04-02T01:22:21.902Z,8.58
2023-04-02T01:24:49.118Z,8.55
2023-04-02T01:27:28.783Z,8.51
2023-04-02T01:29:58.429Z,8.55
2023-04-02T01:32:30.151Z,8.54
2023-04-02T01:34:58.392Z,8.60
2023-04-02T01:37:57.201Z,8.56
2023-04-02T01:40:31.394Z,8.55
2023-04-02T01:43:09.872Z,8.56
2023-04-02T01:45:36.910Z,8.54
2023-04-02T01:48:17.071Z,8.54
2023-04-02T01:50:45.486Z,8.54
2023-04-02T01:53:17.170Z,8.53
2023-04-02T01:55:47.010Z,8.53
2023-04-02T01:58:17.297Z,8.55
2023-04-02T02:00:49.911Z,8.58
2023-04-02T02:03:20.843Z,8.60
2023-04-02T02:05:47.654Z,8.67
2023-04-02T02:08:32.626Z,8.70
2023-04-02T02:10:59.691Z,8.71
2023-04-02T02:13:26.410Z,8.76
2023-04-02T02:15:56.809Z,8.76
2023-04-02T02:18:23.962Z,8.79
2023-04-02T02:20:52.687Z,8.81
2023-04-02T02:23:21.392Z,8.79
2023-04-02T02:25:50.876Z,8.77
2023-04-02T02:28:27.293Z,8.75
2023-04-02T02:31:01.574Z,8.72
2023-04-02T02:33:34.839Z,8.68
2023-04-02T02:36:10.559Z,8.56
2023-04-02T02:38:43.578Z,8.56
2023-04-02T02:41:29.259Z,8.49
2023-04-02T02:44:07.491Z,8.47
2023-04-02T02:46:37.875Z,8.45
2023-04-02T02:49:06.205Z,8.42
2023-04-02T02:51:58.872Z,8.40
2023-04-02T02:54:27.358Z,8.37
2023-04-02T02:56:59.818Z,8.37
2023-04-02T02:59:29.697Z,8.36
2023-04-02T03:01:57.294Z,8.35
2023-04-02T03:04:25.165Z,8.39
2023-04-02T03:06:53.301Z,8.42
2023-04-02T03:09:33.938Z,8.42
2023-04-02T03:12:35.131Z,8.43
2023-04-02T03:15:37.383Z,8.42
2023-04-02T03:18:40.225Z,8.41
2023-04-02T03:21:25.410Z,8.40
2023-04-02T03:23:57.648Z,8.43
2023-04-02T03:26:39.887Z,8.47
2023-04-02T03:29:17.916Z,8.52
2023-04-02T03:31:48.713Z,8.53
2023-04-02T03:34:29.801Z,8.56
2023-04-02T03:37:08.130Z,8.58
2023-04-02T03:39:46.463Z,8.59
2023-04-02T03:42:21.673Z,8.56
2023-04-02T03:45:03.287Z,8.55
2023-04-02T03:47:36.459Z,8.55
2023-04-02T03:50:31.894Z,8.57
2023-04-02T03:53:00.383Z,8.58
2023-04-02T03:55:33.953Z,8.56
2023-04-02T03:58:27.149Z,8.54
2023-04-02T04:01:09.127Z,8.60
2023-04-02T04:03:49.811Z,8.59
2023-04-02T04:06:32.946Z,8.57
2023-04-02T04:09:15.672Z,8.59
2023-04-02T04:11:49.763Z,8.60
2023-04-02T04:14:35.274Z,8.59
2023-04-02T04:17:15.630Z,8.56
2023-04-02T04:19:45.533Z,8.60
2023-04-02T04:22:30.091Z,8.59
2023-04-02T04:25:05.938Z,8.57
2023-04-02T04:27:52.906Z,8.62
2023-04-02T04:30:34.971Z,8.68
2023-04-02T04:33:11.786Z,8.67
2023-04-02T04:38:27.590Z,8.70
2023-04-02T04:40:59.571Z,8.71
2023-04-02T04:43:46.438Z,8.70
2023-04-02T04:46:18.478Z,8.74
2023-04-02T04:49:03.190Z,8.78
2023-04-02T04:51:45.300Z,8.83
2023-04-02T04:54:16.377Z,8.74
2023-04-02T04:56:55.486Z,8.68
2023-04-02T04:59:52.719Z,8.65
2023-04-02T05:02:38.434Z,8.60
2023-04-02T05:05:18.814Z,8.62
2023-04-02T05:07:51.183Z,8.63
2023-04-02T05:10:41.552Z,8.65
2023-04-02T05:13:20.788Z,8.70
2023-04-02T05:16:12.368Z,8.72
2023-04-02T05:19:01.843Z,8.74
2023-04-02T05:22:24.342Z,8.81
2023-04-02T05:24:59.544Z,8.84
2023-04-02T05:27:41.983Z,8.85
2023-04-02T05:30:20.150Z,8.88
2023-04-02T05:32:53.681Z,8.93
2023-04-02T05:35:24.988Z,8.96
2023-04-02T05:37:52.456Z,8.99
2023-04-02T05:40:29.709Z,9.02
2023-04-02T05:42:58.538Z,8.99
2023-04-02T05:45:31.531Z,9.06
2023-04-02T05:48:02.198Z,9.08
2023-04-02T05:50:37.570Z,9.09
2023-04-02T05:53:17.901Z,9.19
2023-04-02T05:56:08.013Z,9.29
2023-04-02T05:58:55.809Z,9.30
2023-04-02T06:01:33.043Z,9.34
2023-04-02T06:04:19.098Z,9.31
2023-04-02T06:06:51.708Z,9.32
2023-04-02T06:09:37.938Z,9.34
2023-04-02T06:12:32.210Z,9.45
2023-04-02T06:14:59.081Z,9.46
2023-04-02T06:17:27.407Z,9.52
2023-04-02T06:19:56.308Z,9.50
2023-04-02T06:22:25.265Z,9.43
2023-04-02T06:25:00.103Z,9.49
2023-04-02T06:27:26.746Z,9.57
2023-04-02T06:29:59.911Z,9.70
2023-04-02T06:32:27.331Z,9.79
2023-04-02T06:34:54.447Z,9.84
2023-04-02T06:37:35.880Z,9.99
2023-04-02T06:40:05.755Z,10.11
2023-04-02T06:42:39.515Z,10.20
2023-04-02T06:45:14.484Z,10.30
2023-04-02T06:47:48.747Z,10.41
2023-04-02T06:50:31.019Z,10.41
2023-04-02T06:53:06.461Z,10.42
2023-04-02T06:55:55.211Z,10.53
2023-04-02T06:58:21.909Z,10.65
2023-04-02T07:00:50.754Z,10.74
2023-04-02T07:03:23.729Z,10.78
2023-04-02T07:05:50.524Z,10.86
2023-04-02T07:08:17.129Z,10.89
2023-04-02T07:10:44.029Z,11.02
2023-04-02T07:13:19.576Z,11.21
2023-04-02T07:15:49.198Z,11.29
2023-04-02T07:18:31.093Z,11.41
2023-04-02T07:20:58.179Z,11.57
2023-04-02T07:23:25.526Z,11.67
2023-04-02T07:25:54.977Z,11.67
2023-04-02T07:28:22.906Z,11.76
2023-04-02T07:30:50.993Z,11.82
2023-04-02T07:33:20.598Z,11.85
2023-04-02T07:35:47.915Z,11.88
2023-04-02T07:38:14.674Z,11.98
2023-04-02T07:40:41.458Z,12.05
2023-04-02T07:43:08.218Z,12.07
2023-04-02T07:45:35.029Z,12.04
2023-04-02T07:48:10.517Z,12.00
2023-04-02T07:50:37.308Z,11.99
2023-04-02T07:53:04.456Z,12.01
2023-04-02T07:55:31.398Z,12.09
2023-04-02T07:57:59.798Z,12.17
2023-04-02T08:00:28.444Z,12.17
2023-04-02T08:02:55.249Z,12.24
2023-04-02T08:05:22.620Z,12.37
2023-04-02T08:07:54.581Z,12.49
2023-04-02T08:10:21.460Z,12.57
2023-04-02T08:12:48.554Z,12.61
2023-04-02T08:15:19.173Z,12.70
2023-04-02T08:17:46.629Z,12.88
2023-04-02T08:20:18.830Z,12.85
2023-04-02T08:22:46.842Z,13.05
2023-04-02T08:25:14.101Z,13.15
2023-04-02T08:27:41.157Z,13.17
2023-04-02T08:30:09.795Z,13.18
2023-04-02T08:32:36.604Z,13.12
2023-04-02T08:35:03.384Z,13.17
2023-04-02T08:37:29.971Z,13.10
2023-04-02T08:39:56.597Z,13.15
2023-04-02T08:42:43.156Z,13.16
2023-04-02T08:45:47.517Z,13.15
2023-04-02T08:48:15.682Z,13.12
2023-04-02T08:50:44.585Z,13.05
2023-04-02T08:53:16.843Z,12.99
2023-04-02T08:56:06.250Z,12.90
2023-04-02T08:58:43.153Z,12.73
2023-04-02T09:01:54.255Z,12.69
2023-04-02T09:04:25.699Z,12.48
2023-04-02T09:06:55.104Z,12.34
2023-04-02T09:09:27.379Z,12.34
2023-04-02T09:12:04.158Z,12.32
2023-04-02T09:14:44.754Z,12.20
2023-04-02T09:17:21.874Z,12.12
2023-04-02T09:19:59.026Z,11.99
2023-04-02T09:22:31.856Z,11.94
2023-04-02T09:25:01.685Z,11.83
2023-04-02T09:27:31.513Z,11.82
2023-04-02T09:30:15.099Z,11.83
2023-04-02T09:32:52.935Z,11.78
2023-04-02T09:35:27.074Z,11.86
2023-04-02T09:38:30.760Z,11.89
2023-04-02T09:41:03.790Z,11.87
2023-04-02T09:43:31.928Z,11.97
2023-04-02T09:46:02.603Z,11.99
2023-04-02T09:48:40.938Z,12.06
2023-04-02T09:51:21.512Z,12.11
2023-04-02T09:54:04.524Z,12.16
2023-04-02T09:56:36.739Z,12.15
2023-04-02T09:59:03.432Z,12.30
2023-04-02T10:01:33.841Z,12.26
2023-04-02T10:04:03.819Z,12.28
2023-04-02T10:06:32.863Z,12.35
2023-04-02T10:09:21.426Z,12.38
2023-04-02T10:11:49.930Z,12.34
2023-04-02T10:14:28.765Z,12.39
2023-04-02T10:17:01.478Z,12.55
2023-04-02T10:19:42.532Z,12.59
2023-04-02T10:22:18.018Z,12.72
2023-04-02T10:24:44.720Z,12.63
2023-04-02T10:27:22.587Z,12.66
2023-04-02T10:30:22.988Z,12.54
2023-04-02T10:33:00.378Z,12.59
2023-04-02T10:35:42.046Z,12.57
2023-04-02T10:38:34.154Z,12.54
2023-04-02T10:41:13.099Z,12.54
2023-04-02T10:44:06.122Z,12.62
2023-04-02T10:46:54.537Z,12.66
2023-04-02T10:49:33.011Z,12.67
2023-04-02T10:52:24.279Z,12.56
2023-04-02T10:54:57.329Z,12.56
2023-04-02T10:57:40.709Z,12.70
2023-04-02T11:00:18.560Z,12.56
2023-04-02T11:02:54.622Z,12.54
2023-04-02T11:05:31.645Z,12.51
2023-04-02T11:08:04.327Z,12.57
2023-04-02T11:10:34.888Z,12.58
2023-04-02T11:13:32.731Z,12.49
2023-04-02T11:15:59.542Z,12.52
2023-04-02T11:18:36.779Z,12.52
2023-04-02T11:21:25.079Z,12.59
2023-04-02T11:23:59.990Z,12.55
2023-04-02T11:26:34.940Z,12.58
2023-04-02T11:29:08.302Z,12.49
2023-04-02T11:31:35.290Z,12.38
2023-04-02T11:34:01.891Z,12.06
2023-04-02T11:36:50.512Z,11.98
2023-04-02T11:39:56.818Z,11.91
2023-04-02T11:42:29.785Z,11.86
2023-04-02T11:45:01.429Z,11.72
2023-04-02T11:47:30.084Z,11.67
2023-04-02T11:49:58.857Z,11.66
2023-04-02T11:52:29.135Z,11.70
2023-04-02T11:54:58.912Z,11.70
2023-04-02T11:57:41.138Z,11.72
2023-04-02T12:00:27.384Z,11.64
2023-04-02T12:03:04.708Z,11.66
2023-04-02T12:05:50.969Z,11.52
2023-04-02T12:09:04.983Z,11.56
2023-04-02T12:11:37.869Z,11.59
2023-04-02T12:14:36.550Z,11.51
2023-04-02T12:17:07.755Z,11.50
2023-04-02T12:19:36.066Z,11.64
2023-04-02T12:22:02.938Z,11.63
2023-04-02T12:24:33.736Z,11.49
2023-04-02T12:27:20.052Z,11.38
2023-04-02T12:29:47.183Z,11.47
2023-04-02T12:32:30.845Z,11.37
2023-04-02T12:35:04.746Z,11.38
2023-04-02T12:37:31.713Z,11.39
2023-04-02T12:40:01.649Z,11.17
2023-04-02T12:42:38.008Z,11.18
2023-04-02T12:45:07.030Z,11.17
2023-04-02T12:47:33.842Z,10.91
2023-04-02T12:50:02.199Z,11.00
2023-04-02T12:52:29.405Z,11.00
2023-04-02T12:55:02.596Z,11.03
2023-04-02T12:57:29.258Z,11.09
2023-04-02T13:00:01.320Z,11.20
2023-04-02T13:02:31.021Z,11.08
2023-04-02T13:05:02.404Z,11.15
2023-04-02T13:07:32.319Z,11.21
2023-04-02T13:10:01.683Z,11.28
2023-04-02T13:12:36.576Z,11.27
2023-04-02T13:15:05.935Z,11.32
2023-04-02T13:17:43.846Z,11.41
2023-04-02T13:20:35.663Z,11.47
2023-04-02T13:23:27.624Z,11.50
2023-04-02T13:25:56.025Z,11.38
2023-04-02T13:28:22.925Z,11.48
2023-04-02T13:30:49.805Z,11.46
2023-04-02T13:33:20.313Z,11.33
2023-04-02T13:35:48.441Z,11.39
2023-04-02T13:38:15.161Z,11.45
2023-04-02T13:40:42.006Z,11.47
2023-04-02T13:43:19.691Z,11.32
2023-04-02T13:45:50.680Z,11.40
2023-04-02T13:48:21.457Z,11.18
2023-04-02T13:50:48.206Z,11.08
2023-04-02T13:53:31.199Z,10.95
2023-04-02T13:56:00.425Z,10.98
2023-04-02T13:58:31.749Z,10.91
2023-04-02T14:01:01.917Z,10.88
2023-04-02T14:03:28.705Z,10.68
2023-04-02T14:06:08.939Z,10.69
2023-04-02T14:08:47.918Z,10.53
2023-04-02T14:11:36.838Z,10.42
2023-04-02T14:14:45.704Z,10.40
2023-04-02T14:17:36.985Z,10.27
2023-04-02T14:20:23.091Z,10.33
2023-04-02T14:22:57.569Z,10.20
2023-04-02T14:25:30.242Z,10.21
2023-04-02T14:28:37.891Z,10.20
2023-04-02T14:31:15.576Z,10.05
2023-04-02T14:34:07.300Z,10.02
2023-04-02T14:36:46.188Z,9.96
2023-04-02T14:39:44.654Z,9.90
2023-04-02T14:42:17.453Z,9.89
2023-04-02T14:44:55.613Z,9.81
2023-04-02T14:47:31.272Z,9.83
2023-04-02T14:50:09.717Z,9.82
2023-04-02T14:52:42.562Z,9.67
2023-04-02T14:55:36.136Z,9.55
2023-04-02T14:58:08.111Z,9.53
2023-04-02T15:00:43.460Z,9.49
2023-04-02T15:03:14.403Z,9.34
2023-04-02T15:05:46.597Z,9.35
2023-04-02T15:08:35.323Z,9.30
2023-04-02T15:11:08.709Z,9.28
2023-04-02T15:13:42.372Z,9.23
2023-04-02T15:16:19.386Z,9.27
2023-04-02T15:18:46.701Z,9.21
2023-04-02T15:21:19.705Z,9.19
2023-04-02T15:24:10.469Z,9.21
2023-04-02T15:26:58.450Z,9.13
2023-04-02T15:29:51.419Z,9.02
2023-04-02T15:32:30.541Z,9.01
2023-04-02T15:35:37.396Z,9.03
2023-04-02T15:38:15.931Z,8.86
2023-04-02T15:41:04.430Z,8.85
2023-04-02T15:43:39.800Z,8.86
2023-04-02T15:46:19.117Z,8.84
2023-04-02T15:49:03.928Z,8.68
2023-04-02T15:51:55.016Z,8.59
2023-04-02T15:54:36.778Z,8.56
2023-04-02T15:57:30.238Z,8.56
2023-04-02T16:00:11.487Z,8.53
2023-04-02T16:02:58.505Z,8.44
2023-04-02T16:05:40.488Z,8.43
2023-04-02T16:08:09.216Z,8.36
2023-04-02T16:10:42.605Z,8.30
2023-04-02T16:13:37.864Z,8.22
2023-04-02T16:16:13.613Z,8.18
2023-04-02T16:19:01.439Z,8.10
2023-04-02T16:21:51.384Z,8.08
2023-04-02T16:24:18.110Z,7.92
2023-04-02T16:27:00.020Z,7.88
2023-04-02T16:30:04.356Z,7.74
2023-04-02T16:32:55.669Z,7.69
2023-04-02T16:35:54.454Z,7.63
2023-04-02T16:38:39.767Z,7.61
2023-04-02T16:41:11.984Z,7.49
2023-04-02T16:44:00.781Z,7.40
2023-04-02T16:47:04.378Z,7.43
2023-04-02T16:50:02.015Z,7.51
2023-04-02T16:53:00.791Z,7.51
2023-04-02T16:55:35.347Z,7.43
2023-04-02T16:58:26.386Z,7.41
2023-04-02T17:01:05.470Z,7.33
2023-04-02T17:03:50.973Z,7.31
2023-04-02T17:07:02.922Z,7.22
2023-04-02T17:09:49.302Z,7.05
2023-04-02T17:12:21.531Z,7.10
2023-04-02T17:14:57.567Z,7.18
2023-04-02T17:17:24.308Z,7.07
2023-04-02T17:19:56.054Z,7.05
2023-04-02T17:22:23.501Z,7.03
2023-04-02T17:25:03.167Z,7.00
2023-04-02T17:27:36.830Z,6.93
2023-04-02T17:30:13.291Z,6.89
2023-04-02T17:32:39.866Z,6.94
2023-04-02T17:35:18.502Z,6.94
2023-04-02T17:38:21.290Z,6.92
2023-04-02T17:41:00.674Z,6.86
2023-04-02T17:43:56.264Z,6.79
2023-04-02T17:46:29.881Z,6.81
2023-04-02T17:49:07.491Z,6.74
2023-04-02T17:52:04.021Z,6.78
2023-04-02T17:54:44.884Z,6.69
2023-04-02T17:57:30.287Z,6.74
2023-04-02T18:00:06.317Z,6.72
2023-04-02T18:03:04.013Z,6.70
2023-04-02T18:05:59.795Z,6.71
2023-04-02T18:08:39.971Z,6.79
2023-04-02T18:11:25.214Z,6.84
2023-04-02T18:14:14.973Z,6.84
2023-04-02T18:17:26.182Z,6.77
2023-04-02T18:19:52.761Z,6.70
2023-04-02T18:22:43.953Z,6.75
2023-04-02T18:25:34.713Z,6.70
2023-04-02T18:28:32.422Z,6.68
2023-04-02T18:31:13.254Z,6.68
2023-04-02T18:33:49.644Z,6.71
2023-04-02T18:36:26.565Z,6.65
2023-04-02T18:39:11.035Z,6.68
2023-04-02T18:41:43.980Z,6.65
2023-04-02T18:44:42.408Z,6.61
2023-04-02T18:47:37.832Z,6.60
2023-04-02T18:50:28.220Z,6.65
2023-04-02T18:52:57.783Z,6.63
2023-04-02T18:55:28.911Z,6.62
2023-04-02T18:58:12.958Z,6.56
2023-04-02T19:00:41.869Z,6.43
2023-04-02T19:03:14.981Z,6.48
2023-04-02T19:05:49.590Z,6.46
2023-04-02T19:08:28.211Z,6.39
2023-04-02T19:11:01.717Z,6.38
2023-04-02T19:13:28.465Z,6.42
2023-04-02T19:16:13.866Z,6.35
2023-04-02T19:19:21.422Z,6.39
2023-04-02T19:22:00.947Z,6.40
2023-04-02T19:24:54.310Z,6.34
2023-04-02T19:27:34.276Z,6.42
2023-04-02T19:30:19.086Z,6.37
2023-04-02T19:32:54.899Z,6.39
2023-04-02T19:35:21.955Z,6.31
2023-04-02T19:38:27.177Z,6.25
2023-04-02T19:41:07.140Z,6.28
2023-04-02T19:43:33.855Z,6.38
2023-04-02T19:46:02.519Z,6.41
2023-04-02T19:48:50.767Z,6.35
2023-04-02T19:51:17.442Z,6.33
2023-04-02T19:53:44.448Z,6.31
2023-04-02T19:56:11.058Z,6.34
2023-04-02T19:58:37.639Z,6.36
2023-04-02T20:01:04.320Z,6.34
2023-04-02T20:03:31.507Z,6.32
2023-04-02T20:06:00.863Z,6.30
2023-04-02T20:08:28.401Z,6.34
2023-04-02T20:10:56.146Z,6.31
2023-04-02T20:13:22.783Z,6.27
2023-04-02T20:15:51.406Z,6.22
2023-04-02T20:18:18.709Z,6.24
2023-04-02T20:20:48.253Z,6.22
2023-04-02T20:23:16.642Z,6.32
2023-04-02T20:25:47.847Z,6.30
2023-04-02T20:28:14.641Z,6.25
2023-04-02T20:30:41.330Z,6.17
2023-04-02T20:33:08.205Z,6.25
2023-04-02T20:35:35.424Z,6.23
2023-04-02T20:38:06.532Z,6.26
2023-04-02T20:40:36.046Z,6.25
2023-04-02T20:43:05.439Z,6.26
2023-04-02T20:45:32.343Z,6.25
2023-04-02T20:47:59.023Z,6.22
2023-04-02T20:50:25.762Z,6.20
2023-04-02T20:52:52.545Z,6.26
2023-04-02T20:55:19.298Z,6.25
2023-04-02T20:57:46.511Z,6.16
2023-04-02T21:00:13.736Z,6.12
2023-04-02T21:02:40.500Z,6.13
2023-04-02T21:05:07.662Z,6.08
2023-04-02T21:07:34.683Z,6.11
2023-04-02T21:10:01.822Z,6.16
2023-04-02T21:12:28.529Z,6.14
2023-04-02T21:15:01.069Z,6.13
2023-04-02T21:17:28.891Z,6.20
2023-04-02T21:19:56.857Z,6.22
2023-04-02T21:22:23.985Z,6.16
2023-04-02T21:24:50.815Z,6.16
2023-04-02T21:27:19.718Z,6.17
2023-04-02T21:29:46.299Z,6.16
2023-04-02T21:32:21.325Z,6.23
2023-04-02T21:34:48.587Z,6.24
2023-04-02T21:37:15.591Z,6.26
2023-04-02T21:39:42.466Z,6.29
2023-04-02T21:42:11.182Z,6.28
2023-04-02T21:44:37.864Z,6.35
2023-04-02T21:47:04.529Z,6.36
2023-04-02T21:49:31.210Z,6.42
2023-04-02T21:51:57.826Z,6.34
2023-04-02T21:54:24.420Z,6.35
2023-04-02T21:56:51.497Z,6.34
2023-04-02T21:59:18.370Z,6.36
2023-04-02T22:01:50.523Z,6.32
2023-04-02T22:04:27.138Z,6.30
2023-04-02T22:06:53.888Z,6.24
2023-04-02T22:09:23.499Z,6.22
2023-04-02T22:11:54.710Z,6.25
2023-04-02T22:14:21.997Z,6.26
2023-04-02T22:16:48.732Z,6.25
2023-04-02T22:19:16.680Z,6.16
2023-04-02T22:21:44.259Z,6.21
2023-04-02T22:24:16.134Z,6.28
2023-04-02T22:26:43.303Z,6.17
2023-04-02T22:29:10.409Z,6.18
2023-04-02T22:31:37.199Z,6.20
2023-04-02T22:34:05.696Z,6.24
2023-04-02T22:36:32.898Z,6.22
2023-04-02T22:39:00.621Z,6.14
2023-04-02T22:41:32.116Z,6.19
2023-04-02T22:44:00.670Z,6.17
2023-04-02T22:46:28.627Z,6.14
2023-04-02T22:48:55.900Z,6.13
2023-04-02T22:51:23.629Z,6.11
2023-04-02T22:53:52.974Z,6.10
2023-04-02T22:56:22.714Z,6.16
2023-04-02T22:58:49.436Z,6.11
2023-04-02T23:01:21.530Z,6.07
2023-04-02T23:03:48.316Z,6.14
2023-04-02T23:06:18.040Z,6.07
2023-04-02T23:08:45.294Z,6.08
2023-04-02T23:11:17.806Z,6.04
2023-04-02T23:13:46.818Z,6.05
2023-04-02T23:16:16.952Z,5.93
2023-04-02T23:18:47.310Z,5.89
2023-04-02T23:21:17.871Z,5.87
2023-04-02T23:23:45.468Z,5.88
2023-04-02T23:26:16.582Z,5.99
2023-04-02T23:28:43.883Z,5.92
2023-04-02T23:31:19.530Z,5.88
2023-04-02T23:33:46.323Z,5.89
2023-04-02T23:36:28.098Z,5.92
2023-04-02T23:38:57.183Z,5.92
2023-04-02T23:41:26.952Z,5.82
2023-04-02T23:43:55.460Z,5.81
2023-04-02T23:46:23.118Z,5.89
2023-04-02T23:48:50.882Z,5.88
2023-04-02T23:51:18.113Z,5.86
2023-04-02T23:53:44.854Z,5.83
2023-04-02T23:56:14.236Z,5.85
2023-04-02T23:58:41.058Z,5.86
